createdAt,value
2018-03-02T09:22:47.129Z,93492
2018-03-02T09:25:16.229Z,93486
2018-03-02T09:27:45.272Z,93477
2018-03-02T09:30:14.350Z,93476
2018-03-02T09:32:43.383Z,93473
2018-03-02T09:35:12.447Z,93470
2018-03-02T09:37:41.456Z,93469
2018-03-02T09:40:10.534Z,93472
2018-03-02T09:42:39.563Z,93468
2018-03-02T09:45:08.687Z,93470
2018-03-02T09:47:37.717Z,93472
2018-03-02T09:50:06.757Z,93462
2018-03-02T09:52:36.584Z,93469
2018-03-02T09:55:05.632Z,93469
2018-03-02T09:57:34.657Z,93468
2018-03-02T10:00:03.724Z,93458
2018-03-02T10:02:32.738Z,93456
2018-03-02T10:05:02.555Z,93455
2018-03-02T10:07:32.342Z,93457
2018-03-02T10:10:01.408Z,93458
2018-03-02T10:12:30.454Z,93462
2018-03-02T10:15:02.268Z,93462
2018-03-02T10:17:31.295Z,93455
2018-03-02T10:20:01.099Z,93456
2018-03-02T10:22:30.163Z,93457
2018-03-02T10:24:59.202Z,93447
2018-03-02T10:27:29.363Z,93457
2018-03-02T10:29:58.383Z,93460
2018-03-02T10:32:27.408Z,93457
2018-03-02T10:34:56.455Z,93455
2018-03-02T10:37:25.522Z,93452
2018-03-02T10:39:54.559Z,93468
2018-03-02T10:42:23.649Z,93444
2018-03-02T10:44:52.683Z,93452
2018-03-02T10:47:22.471Z,93450
2018-03-02T10:49:51.590Z,93436
2018-03-02T10:52:20.609Z,93431
2018-03-02T10:54:54.127Z,93428
2018-03-02T10:57:23.188Z,93430
2018-03-02T10:59:52.977Z,93435
2018-03-02T11:02:23.181Z,93436
2018-03-02T11:07:59.632Z,93423
2018-03-02T11:10:28.659Z,93426
2018-03-02T11:12:58.123Z,93420
2018-03-02T11:15:31.457Z,93431
2018-03-02T11:18:00.488Z,93419
2018-03-02T11:20:30.615Z,93439
2018-03-02T11:22:59.679Z,93423
2018-03-02T11:25:28.808Z,93423
2018-03-02T11:27:57.897Z,93424
2018-03-02T11:30:27.717Z,93435
2018-03-02T11:32:56.788Z,93423
2018-03-02T11:35:25.954Z,93427
2018-03-02T11:37:54.991Z,93418
2018-03-02T11:40:24.114Z,93418
2018-03-02T11:42:53.441Z,93428
2018-03-02T11:45:22.849Z,93423
2018-03-02T11:47:52.251Z,93435
2018-03-02T11:50:25.156Z,93442
2018-03-02T11:52:56.505Z,93435
2018-03-02T11:55:27.305Z,93424
2018-03-02T11:57:56.564Z,93429
2018-03-02T12:00:27.300Z,93426
2018-03-02T12:03:00.666Z,93417
2018-03-02T12:05:38.095Z,93409
2018-03-02T12:08:10.012Z,93411
2018-03-02T12:10:42.438Z,93396
2018-03-02T12:13:19.296Z,93392
2018-03-02T12:15:54.877Z,93396
2018-03-02T12:18:24.611Z,93404
2018-03-02T12:21:03.867Z,93396
2018-03-02T12:23:36.436Z,93396
2018-03-02T12:26:05.812Z,93411
2018-03-02T12:28:36.159Z,93413
2018-03-02T12:31:06.128Z,93446
2018-03-02T12:33:36.895Z,93431
2018-03-02T12:36:12.325Z,93428
2018-03-02T12:38:42.267Z,93444
2018-03-02T12:41:14.145Z,93458
2018-03-02T12:43:50.227Z,93469
2018-03-02T12:46:21.636Z,93476
2018-03-02T12:48:53.729Z,93471
2018-03-02T12:51:23.689Z,93484
2018-03-02T12:53:56.483Z,93493
2018-03-02T12:56:30.312Z,93504
2018-03-02T12:59:00.349Z,93515
2018-03-02T13:01:30.835Z,93528
2018-03-02T13:04:04.537Z,93530
2018-03-02T13:06:40.713Z,93531
2018-03-02T13:09:12.517Z,93530
2018-03-02T13:11:53.205Z,93535
2018-03-02T13:14:26.556Z,93524
2018-03-02T13:17:00.116Z,93528
2018-03-02T13:19:51.144Z,93527
2018-03-02T13:22:41.553Z,93534
2018-03-02T13:25:13.045Z,93542
2018-03-02T13:28:00.250Z,93549
2018-03-02T14:05:25.738Z,93628
2018-03-02T14:17:47.176Z,93630
2018-03-02T14:20:22.855Z,93646
2018-03-02T14:56:12.208Z,93663
2018-03-02T14:59:24.174Z,93660
2018-03-02T15:02:03.716Z,93672
2018-03-02T15:04:33.687Z,93679
2018-03-02T16:42:26.398Z,93820
2018-03-02T16:44:55.411Z,93825
2018-03-02T16:47:24.443Z,93833
2018-03-02T16:49:54.313Z,93825
2018-03-02T16:52:23.341Z,93836
2018-03-02T16:54:52.804Z,93837
2018-03-02T16:57:21.911Z,93841
2018-03-02T16:59:51.014Z,93843
2018-03-02T17:02:20.014Z,93837
2018-03-02T17:04:49.481Z,93844
2018-03-02T17:07:18.574Z,93838
2018-03-02T17:09:47.671Z,93842
2018-03-02T17:12:16.698Z,93843
2018-03-02T17:14:45.728Z,93848
2018-03-02T17:17:15.602Z,93844
2018-03-02T17:19:46.649Z,93847
2018-03-02T17:22:15.796Z,93838
2018-03-02T17:24:44.857Z,93836
2018-03-02T17:27:13.896Z,93844
2018-03-02T17:29:42.977Z,93843
2018-03-02T17:32:12.818Z,93848
2018-03-02T17:34:41.895Z,93856
2018-03-02T17:37:10.943Z,93854
2018-03-02T17:39:40.063Z,93851
2018-03-02T17:42:09.879Z,93864
2018-03-02T17:44:39.732Z,93870
2018-03-02T17:47:08.794Z,93874
2018-03-02T17:49:38.596Z,93878
2018-03-02T17:52:08.469Z,93865
2018-03-02T17:54:37.555Z,93891
2018-03-02T17:57:06.621Z,93865
2018-03-02T17:59:35.658Z,93870
2018-03-02T18:02:04.734Z,93875
2018-03-02T18:04:33.806Z,93876
2018-03-02T18:07:02.885Z,93884
2018-03-02T18:09:31.978Z,93874
2018-03-02T18:12:01.796Z,93885
2018-03-02T18:14:30.872Z,93894
2018-03-02T18:17:00.672Z,93892
2018-03-02T18:19:29.748Z,93890
2018-03-02T18:22:03.308Z,93887
2018-03-02T18:24:32.421Z,93885
2018-03-02T18:27:01.458Z,93884
2018-03-02T18:29:31.305Z,93894
2018-03-02T18:32:00.377Z,93893
2018-03-02T18:34:30.174Z,93889
2018-03-02T18:36:59.222Z,93900
2018-03-02T18:39:28.234Z,93892
2018-03-02T18:41:57.336Z,93892
2018-03-02T18:44:27.359Z,93891
2018-03-02T18:46:56.405Z,93885
2018-03-02T18:49:26.213Z,93886
2018-03-02T18:51:56.026Z,93883
2018-03-02T18:54:26.770Z,93893
2018-03-02T18:56:55.879Z,93895
2018-03-02T18:59:24.908Z,93890
2018-03-02T19:01:54.012Z,93891
2018-03-02T19:04:24.169Z,93898
2018-03-02T19:06:54.341Z,93891
2018-03-02T19:09:30.887Z,93892
2018-03-02T19:12:06.696Z,93896
2018-03-02T19:14:40.682Z,93885
2018-03-02T19:20:07.309Z,93893
2018-03-02T19:22:36.386Z,93883
2018-03-02T19:25:05.576Z,93888
2018-03-02T19:27:34.649Z,93891
2018-03-02T19:30:04.605Z,93411
2018-03-02T19:32:33.678Z,93881
2018-03-02T19:35:03.493Z,93887
2018-03-02T19:37:33.344Z,93891
2018-03-02T19:40:02.393Z,93893
2018-03-02T19:42:31.520Z,93877
2018-03-02T19:45:00.724Z,93886
2018-03-02T19:47:29.868Z,93881
2018-03-02T19:49:59.253Z,93880
2018-03-02T19:52:30.868Z,93876
2018-03-02T19:55:03.207Z,93882
2018-03-02T19:57:33.704Z,93884
2018-03-02T20:00:03.164Z,93891
2018-03-02T20:02:32.411Z,93891
2018-03-02T20:05:01.458Z,93884
2018-03-02T20:07:31.296Z,93886
2018-03-02T20:10:00.395Z,93874
2018-03-02T20:12:29.414Z,93887
2018-03-02T20:14:58.533Z,93891
2018-03-02T20:17:28.555Z,93893
2018-03-02T20:19:57.840Z,93905
2018-03-02T20:22:26.952Z,93903
2018-03-02T20:24:56.116Z,93897
2018-03-02T20:27:25.206Z,93912
2018-03-02T20:29:54.520Z,93909
2018-03-02T20:32:23.632Z,93904
2018-03-02T20:34:53.785Z,93894
2018-03-02T20:37:23.887Z,93900
2018-03-02T20:39:52.956Z,93898
2018-03-02T20:42:22.182Z,93902
2018-03-02T20:44:53.163Z,93909
2018-03-02T20:47:22.277Z,93905
2018-03-02T20:49:51.283Z,93906
2018-03-02T20:52:20.353Z,93913
2018-03-02T20:54:49.411Z,93909
2018-03-02T20:57:18.516Z,93915
2018-03-02T20:59:48.324Z,93911
2018-03-02T21:02:18.182Z,93914
2018-03-02T21:04:47.234Z,93903
2018-03-02T21:07:16.285Z,93911
2018-03-02T21:09:45.381Z,93905
2018-03-02T21:12:15.718Z,93906
2018-03-02T21:14:46.412Z,93909
2018-03-02T21:17:17.443Z,93911
2018-03-02T21:19:51.827Z,93931
2018-03-02T21:22:23.624Z,93919
2018-03-02T21:24:53.999Z,93922
2018-03-02T21:27:25.675Z,93928
2018-03-02T21:29:55.887Z,93926
2018-03-02T21:32:27.218Z,93924
2018-03-02T21:34:58.177Z,93932
2018-03-02T21:37:29.053Z,93921
2018-03-02T21:39:59.109Z,93914
2018-03-02T21:42:29.813Z,93924
2018-03-02T21:45:00.974Z,93943
2018-03-02T21:47:32.564Z,93921
2018-03-02T21:50:02.949Z,93915
2018-03-02T21:52:32.838Z,93922
2018-03-02T21:55:18.003Z,93914
2018-03-02T21:57:48.965Z,93912
2018-03-02T22:00:19.142Z,93910
2018-03-02T22:03:11.666Z,93922
2018-03-02T22:05:52.568Z,93904
2018-03-02T22:08:31.358Z,93912
2018-03-02T22:11:17.261Z,93914
2018-03-02T22:20:31.445Z,93911
2018-03-02T22:35:36.094Z,93897
2018-03-02T22:38:42.574Z,93896
2018-03-02T22:41:21.373Z,93912
2018-03-02T23:33:48.564Z,93909
2018-03-02T23:36:19.743Z,93922
2018-03-02T23:38:50.359Z,93923
2018-03-02T23:41:19.959Z,93928
2018-03-02T23:43:50.330Z,93929
2018-03-02T23:46:22.706Z,93930
2018-03-02T23:49:07.803Z,93930
2018-03-02T23:51:37.228Z,93925
2018-03-02T23:54:07.448Z,93921
2018-03-02T23:56:36.732Z,93923
2018-03-02T23:59:06.257Z,93914
